Airfield :
LOGIN :

Register | Disclaimer

   EN    FR    IT 

 










Legend :    VFR   Marginal VFR   IFR   Intensive IFR   Very Intensive IFR
Visi :
Ceiling :
>= 8 km
>= 3000ft
5 to 8 km
1000 to 3000 ft
1500m to 5 km
500 to 1000 ft
800 to 1500m
200 to 500 ft
< 800m
< 200 ft
Symbols :   Thunderstorms  Fog  Heavy snow  Heavy precipitations  Wind > 20 kt
SIGMETs :     Misc.  Thunderstorms  Icing  Turbulence  Mountain Waves  Volcanic Ashes







- Airport Elevation : 53 ft
- IATA code : HRT


EGXU - RAF Linton-on-Ouse

CURRENT METAR :
  • 281550Z 22011KT 9999 -RA BKN034 18/12 Q1002 BLU TEMPO SHRA SCT024 WHT

EXPIRED METARs :
  • 281450Z 22017KT 9999 FEW040 BKN050 19/10 Q1002 BLU TEMPO 7000 SHRA SCT020 WHT
  • 281350Z 25009KT 9999 FEW030 BKN040 20/10 Q1002 BLU TEMPO 7000 SHRA SCT020 WHT

TAF COR TAF EGXU
Valid from the 28 at 09:00 until the 28 at 17:00 UTC


280716Z 2809/2817 24012KT 9999 FEW020 SCT030
TEMPO 2809/2814 25015G25KT
PROB30
TEMPO 2809/2811 SCT020
No reported NOTAMs for that airfield.



MET'MAP, your aeronautical weather chart ! - Copyright ORBIFLY December 2007 - Disclaimer

ORBIFLY MET'MAP TEAM :

Programming & Development : Alexandra Zaïnal
Concept & Development : Baudouin d'Aumeries
Co-Development & Prog : Marc-Olivier Méhu
Technical & hardware support : Manuel Goepfert

Contact : metmap@orbifly.com




SOURCES & CREDITS :

   NOAA